createdAt,value
2023-05-14T00:01:36.284Z,93.50
2023-05-14T00:04:04.409Z,93.60
2023-05-14T00:06:31.892Z,93.60
2023-05-14T00:08:58.788Z,93.80
2023-05-14T00:11:26.109Z,93.80
2023-05-14T00:13:53.068Z,93.80
2023-05-14T00:16:20.311Z,93.80
2023-05-14T00:18:47.378Z,93.80
2023-05-14T00:21:14.699Z,93.80
2023-05-14T00:23:41.572Z,93.80
2023-05-14T00:26:08.927Z,93.90
2023-05-14T00:28:35.835Z,94.00
2023-05-14T00:31:03.339Z,94.00
2023-05-14T00:33:31.035Z,94.00
2023-05-14T00:35:58.448Z,94.10
2023-05-14T00:38:27.651Z,94.10
2023-05-14T00:40:54.926Z,94.20
2023-05-14T00:43:22.836Z,94.20
2023-05-14T00:45:52.525Z,94.30
2023-05-14T00:48:21.491Z,94.40
2023-05-14T00:50:51.000Z,94.40
2023-05-14T00:53:21.499Z,94.60
2023-05-14T00:55:50.521Z,94.70
2023-05-14T00:58:19.340Z,94.80
2023-05-14T01:00:46.877Z,94.90
2023-05-14T01:03:14.024Z,95.10
2023-05-14T01:06:13.242Z,95.30
2023-05-14T01:09:12.481Z,95.60
2023-05-14T01:12:02.754Z,95.90
2023-05-14T01:14:40.979Z,96.10
2023-05-14T01:17:13.074Z,96.10
2023-05-14T01:19:45.354Z,96.20
2023-05-14T01:22:13.134Z,96.40
2023-05-14T01:24:40.617Z,96.60
2023-05-14T01:27:35.600Z,96.70
2023-05-14T01:30:10.221Z,96.90
2023-05-14T01:32:39.614Z,97.10
2023-05-14T01:35:09.332Z,97.00
2023-05-14T01:37:38.784Z,96.90
2023-05-14T01:40:08.066Z,96.80
2023-05-14T01:42:36.224Z,97.00
2023-05-14T01:45:03.689Z,97.00
2023-05-14T01:47:30.966Z,97.10
2023-05-14T01:49:57.968Z,97.10
2023-05-14T01:52:25.261Z,97.20
2023-05-14T01:54:52.502Z,97.20
2023-05-14T01:57:19.766Z,97.10
2023-05-14T01:59:46.737Z,97.20
2023-05-14T02:02:14.456Z,97.30
2023-05-14T02:04:42.150Z,97.40
2023-05-14T02:07:09.333Z,97.50
2023-05-14T02:09:36.343Z,97.50
2023-05-14T02:12:04.099Z,97.40
2023-05-14T02:14:31.355Z,97.50
2023-05-14T02:16:58.613Z,97.50
2023-05-14T02:19:25.593Z,97.60
2023-05-14T02:21:52.766Z,97.60
2023-05-14T02:24:19.770Z,97.70
2023-05-14T02:26:47.244Z,97.70
2023-05-14T02:29:14.130Z,97.80
2023-05-14T02:31:41.441Z,98.00
2023-05-14T02:34:08.424Z,98.20
2023-05-14T02:36:35.711Z,98.20
2023-05-14T02:39:02.830Z,98.20
2023-05-14T02:41:30.280Z,98.20
2023-05-14T02:43:57.459Z,98.20
2023-05-14T02:46:24.944Z,98.20
2023-05-14T02:48:51.868Z,98.20
2023-05-14T02:51:21.135Z,98.40
2023-05-14T02:53:48.254Z,98.40
2023-05-14T02:56:15.630Z,98.30
2023-05-14T02:58:42.663Z,98.40
2023-05-14T03:01:10.132Z,98.70
2023-05-14T03:03:38.195Z,98.60
2023-05-14T03:06:06.039Z,98.60
2023-05-14T03:08:33.082Z,98.60
2023-05-14T03:11:00.578Z,98.60
2023-05-14T03:13:27.660Z,98.70
2023-05-14T03:15:55.216Z,98.70
2023-05-14T03:18:23.115Z,98.70
2023-05-14T03:20:50.452Z,98.70
2023-05-14T03:23:17.558Z,98.80
2023-05-14T03:25:45.481Z,98.70
2023-05-14T03:28:12.427Z,98.80
2023-05-14T03:30:40.214Z,98.80
2023-05-14T03:33:07.376Z,98.80
2023-05-14T03:35:34.635Z,98.90
2023-05-14T03:38:01.672Z,99.00
2023-05-14T03:40:28.888Z,99.20
2023-05-14T03:42:56.110Z,99.50
2023-05-14T03:45:24.001Z,99.80
2023-05-14T03:47:51.042Z,99.90
2023-05-14T03:50:18.628Z,99.90
2023-05-14T03:52:46.022Z,99.90
2023-05-14T03:55:13.253Z,99.90
2023-05-14T03:57:40.567Z,99.90
2023-05-14T04:00:08.739Z,99.90
2023-05-14T04:02:43.884Z,99.90
2023-05-14T04:05:11.546Z,99.90
2023-05-14T04:07:38.588Z,99.90
2023-05-14T04:10:06.829Z,99.90
2023-05-14T04:12:35.795Z,99.90
2023-05-14T04:15:05.263Z,99.90
2023-05-14T04:17:33.960Z,99.90
2023-05-14T04:20:04.429Z,99.90
2023-05-14T04:22:32.015Z,99.90
2023-05-14T04:24:59.190Z,99.90
2023-05-14T04:27:26.778Z,99.90
2023-05-14T04:29:53.919Z,99.90
2023-05-14T04:32:21.343Z,99.90
2023-05-14T04:34:48.619Z,99.90
2023-05-14T04:37:15.791Z,99.90
2023-05-14T04:39:43.521Z,99.90
2023-05-14T04:42:10.834Z,99.90
2023-05-14T04:44:37.981Z,99.90
2023-05-14T04:47:05.359Z,99.90
2023-05-14T04:49:33.379Z,99.90
2023-05-14T04:52:01.534Z,99.90
2023-05-14T04:54:29.051Z,99.90
2023-05-14T04:56:55.991Z,99.90
2023-05-14T04:59:23.348Z,99.90
2023-05-14T05:01:51.602Z,99.90
2023-05-14T05:04:19.408Z,99.90
2023-05-14T05:06:46.545Z,99.90
2023-05-14T05:09:14.577Z,99.90
2023-05-14T05:11:41.737Z,99.90
2023-05-14T05:14:08.929Z,99.90
2023-05-14T05:16:36.011Z,99.90
2023-05-14T05:19:03.577Z,99.90
2023-05-14T05:21:31.732Z,99.90
2023-05-14T05:23:58.913Z,99.90
2023-05-14T05:26:27.186Z,99.90
2023-05-14T05:28:54.481Z,99.90
2023-05-14T05:31:21.434Z,99.90
2023-05-14T05:33:48.950Z,99.90
2023-05-14T05:36:15.973Z,99.90
2023-05-14T05:38:43.127Z,99.90
2023-05-14T05:41:10.419Z,99.90
2023-05-14T05:43:37.578Z,99.90
2023-05-14T05:46:04.482Z,99.90
2023-05-14T05:48:31.719Z,99.90
2023-05-14T05:50:58.682Z,99.70
2023-05-14T05:53:26.037Z,99.20
2023-05-14T05:55:53.002Z,98.90
2023-05-14T05:58:20.313Z,98.50
2023-05-14T06:00:47.535Z,98.20
2023-05-14T06:03:14.812Z,98.10
2023-05-14T06:05:41.943Z,97.80
2023-05-14T06:08:09.785Z,97.60
2023-05-14T06:10:37.578Z,97.10
2023-05-14T06:13:04.871Z,97.20
2023-05-14T06:15:31.732Z,96.80
2023-05-14T06:17:59.109Z,96.50
2023-05-14T06:20:26.398Z,96.30
2023-05-14T06:22:54.156Z,96.20
2023-05-14T06:25:21.239Z,96.00
2023-05-14T06:27:48.584Z,95.60
2023-05-14T06:30:15.972Z,95.20
2023-05-14T06:32:43.521Z,95.00
2023-05-14T06:35:10.772Z,95.00
2023-05-14T06:37:38.117Z,94.60
2023-05-14T06:40:06.665Z,94.20
2023-05-14T06:42:33.846Z,94.30
2023-05-14T06:45:00.773Z,93.90
2023-05-14T06:47:28.491Z,93.80
2023-05-14T06:49:58.534Z,93.50
2023-05-14T06:52:25.900Z,93.50
2023-05-14T06:54:55.417Z,93.60
2023-05-14T06:57:22.707Z,93.10
2023-05-14T06:59:49.641Z,92.50
2023-05-14T07:02:16.802Z,92.80
2023-05-14T07:04:43.946Z,92.60
2023-05-14T07:07:15.155Z,92.40
2023-05-14T07:09:42.445Z,92.00
2023-05-14T07:12:09.817Z,92.10
2023-05-14T07:14:36.800Z,92.10
2023-05-14T07:17:04.487Z,92.10
2023-05-14T07:19:31.500Z,92.30
2023-05-14T07:21:58.801Z,92.30
2023-05-14T07:24:25.884Z,91.90
2023-05-14T07:26:54.345Z,92.00
2023-05-14T07:29:22.276Z,91.70
2023-05-14T07:31:49.696Z,91.50
2023-05-14T07:34:16.858Z,91.30
2023-05-14T07:36:44.176Z,91.10
2023-05-14T07:39:11.214Z,90.50
2023-05-14T07:41:38.475Z,90.30
2023-05-14T07:44:05.754Z,90.40
2023-05-14T07:46:32.637Z,90.20
2023-05-14T07:48:59.959Z,90.00
2023-05-14T07:51:28.324Z,90.10
2023-05-14T07:53:56.075Z,90.00
2023-05-14T07:56:23.476Z,89.30
2023-05-14T07:58:51.712Z,89.30
2023-05-14T08:01:18.822Z,88.00
2023-05-14T08:03:46.581Z,88.90
2023-05-14T08:06:13.706Z,88.40
2023-05-14T08:08:41.164Z,88.50
2023-05-14T08:11:08.177Z,88.20
2023-05-14T08:13:35.436Z,87.10
2023-05-14T08:16:02.885Z,87.10
2023-05-14T08:18:30.172Z,87.20
2023-05-14T08:20:57.174Z,87.60
2023-05-14T08:23:24.507Z,86.20
2023-05-14T08:25:51.413Z,86.40
2023-05-14T08:28:18.672Z,85.00
2023-05-14T08:30:45.866Z,85.10
2023-05-14T08:33:13.267Z,84.00
2023-05-14T08:35:40.244Z,84.90
2023-05-14T08:38:07.533Z,85.30
2023-05-14T08:40:35.132Z,84.20
2023-05-14T08:43:03.013Z,81.10
2023-05-14T08:45:34.977Z,84.50
2023-05-14T08:48:08.908Z,84.80
2023-05-14T08:50:36.912Z,83.10
2023-05-14T08:53:04.135Z,83.70
2023-05-14T08:55:33.363Z,82.90
2023-05-14T08:58:04.339Z,83.50
2023-05-14T09:00:31.417Z,82.80
2023-05-14T09:03:00.371Z,82.10
2023-05-14T09:05:28.024Z,79.20
2023-05-14T09:07:55.500Z,81.50
2023-05-14T09:10:23.089Z,82.40
2023-05-14T09:12:51.616Z,81.90
2023-05-14T09:15:18.880Z,81.40
2023-05-14T09:17:48.540Z,81.60
2023-05-14T09:20:16.716Z,80.60
2023-05-14T09:22:43.941Z,79.00
2023-05-14T09:25:12.374Z,79.90
2023-05-14T09:27:39.786Z,78.80
2023-05-14T09:30:13.187Z,78.40
2023-05-14T09:32:46.309Z,80.00
2023-05-14T09:35:23.478Z,80.20
2023-05-14T09:37:55.468Z,81.40
2023-05-14T09:40:24.679Z,80.30
2023-05-14T09:42:52.257Z,79.10
2023-05-14T09:45:19.390Z,80.70
2023-05-14T09:47:47.162Z,79.10
2023-05-14T09:50:14.251Z,80.00
2023-05-14T09:52:42.532Z,80.00
2023-05-14T09:55:09.921Z,80.10
2023-05-14T09:57:37.508Z,79.30
2023-05-14T10:00:05.483Z,79.70
2023-05-14T10:02:38.296Z,76.10
2023-05-14T10:05:08.187Z,79.70
2023-05-14T10:07:47.958Z,79.40
2023-05-14T10:10:24.814Z,76.20
2023-05-14T10:12:58.093Z,78.50
2023-05-14T10:15:37.340Z,76.00
2023-05-14T10:18:16.005Z,79.20
2023-05-14T10:20:47.008Z,78.70
2023-05-14T10:23:14.508Z,78.40
2023-05-14T10:25:42.301Z,77.80
2023-05-14T10:28:10.584Z,76.70
2023-05-14T10:30:46.122Z,75.40
2023-05-14T10:33:16.595Z,79.40
2023-05-14T10:36:06.789Z,75.30
2023-05-14T10:38:36.883Z,76.20
2023-05-14T10:41:05.831Z,78.00
2023-05-14T10:43:41.075Z,77.50
2023-05-14T10:46:11.066Z,77.90
2023-05-14T10:48:42.802Z,78.50
2023-05-14T10:51:11.393Z,78.60
2023-05-14T10:53:43.168Z,78.40
2023-05-14T10:56:14.605Z,76.10
2023-05-14T10:58:45.842Z,78.60
2023-05-14T11:01:13.765Z,79.50
2023-05-14T11:03:46.834Z,78.30
2023-05-14T11:06:16.179Z,77.50
2023-05-14T11:08:46.213Z,77.70
2023-05-14T11:11:13.327Z,78.80
2023-05-14T11:13:42.599Z,79.60
2023-05-14T11:18:41.755Z,77.20
2023-05-14T11:21:08.960Z,79.70
2023-05-14T11:23:36.266Z,78.70
2023-05-14T11:26:03.506Z,77.60
2023-05-14T11:28:30.894Z,80.00
2023-05-14T11:30:57.896Z,77.90
2023-05-14T11:33:29.098Z,80.30
2023-05-14T11:35:56.160Z,79.30
2023-05-14T11:38:23.395Z,77.50
2023-05-14T11:40:56.767Z,76.70
2023-05-14T11:43:29.211Z,78.80
2023-05-14T11:45:56.807Z,78.40
2023-05-14T11:48:24.344Z,78.40
2023-05-14T11:50:52.950Z,81.20
2023-05-14T11:53:26.540Z,80.20
2023-05-14T11:55:59.884Z,81.40
2023-05-14T11:58:27.023Z,79.20
2023-05-14T12:00:56.050Z,79.20
2023-05-14T12:03:26.667Z,80.80
2023-05-14T12:06:02.434Z,78.80
2023-05-14T12:08:31.998Z,81.10
2023-05-14T12:11:00.867Z,80.60
2023-05-14T12:13:31.378Z,78.40
2023-05-14T12:16:02.393Z,78.00
2023-05-14T12:18:32.395Z,80.20
2023-05-14T12:21:04.802Z,78.30
2023-05-14T12:23:33.251Z,80.10
2023-05-14T12:26:09.048Z,80.80
2023-05-14T12:28:43.354Z,81.00
2023-05-14T12:31:10.802Z,79.60
2023-05-14T12:33:37.981Z,78.40
2023-05-14T12:36:20.549Z,79.10
2023-05-14T12:39:01.661Z,78.80
2023-05-14T12:41:32.104Z,78.80
2023-05-14T12:44:00.732Z,79.60
2023-05-14T12:46:28.321Z,81.10
2023-05-14T12:48:56.621Z,80.80
2023-05-14T12:51:23.949Z,77.60
2023-05-14T12:53:52.192Z,80.00
2023-05-14T12:56:19.478Z,80.20
2023-05-14T12:58:47.670Z,78.90
2023-05-14T13:01:14.742Z,79.90
2023-05-14T13:03:42.146Z,81.10
2023-05-14T13:06:09.308Z,77.70
2023-05-14T13:08:36.678Z,79.20
2023-05-14T13:11:03.851Z,78.60
2023-05-14T13:13:31.105Z,78.60
2023-05-14T13:15:58.113Z,78.40
2023-05-14T13:18:26.623Z,79.40
2023-05-14T13:20:54.212Z,80.20
2023-05-14T13:23:21.487Z,81.80
2023-05-14T13:25:50.060Z,81.30
2023-05-14T13:28:17.500Z,80.70
2023-05-14T13:31:06.238Z,81.50
2023-05-14T13:33:40.690Z,82.20
2023-05-14T13:36:09.515Z,81.40
2023-05-14T13:38:36.736Z,81.10
2023-05-14T13:41:04.235Z,82.20
2023-05-14T13:43:33.434Z,81.90
2023-05-14T13:46:01.507Z,81.30
2023-05-14T13:48:28.993Z,80.60
2023-05-14T13:50:56.169Z,80.50
2023-05-14T13:53:25.133Z,81.80
2023-05-14T13:56:00.858Z,82.10
2023-05-14T13:58:28.329Z,82.50
2023-05-14T14:00:56.490Z,81.50
2023-05-14T14:03:23.847Z,82.50
2023-05-14T14:05:52.023Z,81.10
2023-05-14T14:08:24.006Z,82.70
2023-05-14T14:10:54.368Z,83.80
2023-05-14T14:13:22.806Z,83.80
2023-05-14T14:15:50.256Z,81.80
2023-05-14T14:18:18.126Z,83.10
2023-05-14T14:20:45.383Z,82.10
2023-05-14T14:23:12.673Z,82.80
2023-05-14T14:25:39.929Z,83.90
2023-05-14T14:28:07.099Z,83.50
2023-05-14T14:30:34.602Z,84.30
2023-05-14T14:33:02.066Z,84.30
2023-05-14T14:35:28.991Z,84.10
2023-05-14T14:37:56.174Z,84.40
2023-05-14T14:40:24.074Z,84.20
2023-05-14T14:42:51.304Z,83.30
2023-05-14T14:45:18.454Z,84.80
2023-05-14T14:47:46.865Z,84.50
2023-05-14T14:50:14.088Z,85.40
2023-05-14T14:52:45.771Z,84.70
2023-05-14T14:55:13.392Z,84.10
2023-05-14T14:57:40.654Z,84.00
2023-05-14T15:00:09.264Z,85.20
2023-05-14T15:02:41.840Z,84.30
2023-05-14T15:05:09.531Z,84.80
2023-05-14T15:07:36.679Z,85.80
2023-05-14T15:10:04.404Z,84.90
2023-05-14T15:12:31.653Z,85.00
2023-05-14T15:14:58.692Z,84.10
2023-05-14T15:17:26.543Z,84.10
2023-05-14T15:19:53.577Z,84.80
2023-05-14T15:22:21.381Z,84.90
2023-05-14T15:24:48.715Z,84.80
2023-05-14T15:27:16.210Z,84.50
2023-05-14T15:29:43.168Z,84.80
2023-05-14T15:32:10.829Z,85.00
2023-05-14T15:34:38.017Z,84.30
2023-05-14T15:37:05.856Z,85.70
2023-05-14T15:39:32.863Z,86.30
2023-05-14T15:42:00.211Z,86.10
2023-05-14T15:44:27.147Z,86.90
2023-05-14T15:46:54.512Z,86.50
2023-05-14T15:49:21.775Z,87.40
2023-05-14T15:51:49.188Z,87.50
2023-05-14T15:54:16.175Z,88.00
2023-05-14T15:56:43.425Z,88.20
2023-05-14T15:59:10.520Z,88.20
2023-05-14T16:01:37.773Z,88.30
2023-05-14T16:04:04.851Z,89.90
2023-05-14T16:06:35.052Z,89.30
2023-05-14T16:09:03.115Z,89.70
2023-05-14T16:11:30.497Z,89.80
2023-05-14T16:13:58.474Z,89.90
2023-05-14T16:16:25.904Z,90.10
2023-05-14T16:18:52.868Z,90.30
2023-05-14T16:21:20.287Z,90.20
2023-05-14T16:23:47.439Z,90.40
2023-05-14T16:26:14.716Z,90.30
2023-05-14T16:28:42.702Z,90.30
2023-05-14T16:31:10.239Z,90.20
2023-05-14T16:33:37.381Z,90.40
2023-05-14T16:36:04.904Z,90.60
2023-05-14T16:38:31.904Z,90.40
2023-05-14T16:40:59.447Z,90.30
2023-05-14T16:43:26.407Z,90.50
2023-05-14T16:45:53.725Z,90.60
2023-05-14T16:48:23.777Z,90.70
2023-05-14T16:50:51.067Z,90.50
2023-05-14T16:53:18.104Z,90.60
2023-05-14T16:55:45.533Z,90.70
2023-05-14T16:58:12.660Z,90.30
2023-05-14T17:00:40.064Z,90.40
2023-05-14T17:03:07.189Z,90.00
2023-05-14T17:05:34.984Z,89.70
2023-05-14T17:08:02.282Z,90.10
2023-05-14T17:10:30.210Z,89.90
2023-05-14T17:12:57.127Z,89.80
2023-05-14T17:15:42.502Z,90.70
2023-05-14T17:18:11.807Z,90.30
2023-05-14T17:20:39.204Z,91.30
2023-05-14T17:23:06.181Z,91.40
2023-05-14T17:25:33.518Z,91.30
2023-05-14T17:28:00.554Z,91.50
2023-05-14T17:30:27.736Z,91.20
2023-05-14T17:32:54.764Z,91.10
2023-05-14T17:35:22.182Z,91.10
2023-05-14T17:37:49.630Z,91.50
2023-05-14T17:40:17.016Z,91.90
2023-05-14T17:42:45.414Z,91.70
2023-05-14T17:45:13.458Z,93.00
2023-05-14T17:47:40.458Z,94.10
2023-05-14T17:50:08.628Z,93.80
2023-05-14T17:52:35.956Z,93.80
2023-05-14T17:55:03.738Z,93.80
2023-05-14T17:57:30.834Z,95.90
2023-05-14T17:59:58.055Z,95.80
2023-05-14T18:02:26.050Z,97.40
2023-05-14T18:04:53.250Z,99.30
2023-05-14T18:07:21.520Z,99.90
2023-05-14T18:09:48.900Z,99.90
2023-05-14T18:12:15.903Z,99.90
2023-05-14T18:14:45.386Z,99.90
2023-05-14T18:17:12.764Z,99.90
2023-05-14T18:19:40.962Z,99.90
2023-05-14T18:22:08.099Z,99.90
2023-05-14T18:24:35.299Z,99.90
2023-05-14T18:27:02.437Z,99.90
2023-05-14T18:29:29.868Z,99.90
2023-05-14T18:31:56.833Z,99.90
2023-05-14T18:34:24.288Z,99.90
2023-05-14T18:36:51.405Z,99.90
2023-05-14T18:39:19.163Z,99.90
2023-05-14T18:41:46.218Z,99.90
2023-05-14T18:44:13.716Z,99.90
2023-05-14T18:46:40.767Z,99.90
2023-05-14T18:49:08.241Z,99.90
2023-05-14T18:51:35.231Z,99.90
2023-05-14T18:54:05.873Z,99.90
2023-05-14T18:56:33.009Z,99.90
2023-05-14T18:59:00.233Z,99.90
2023-05-14T19:01:28.050Z,99.90
2023-05-14T19:03:56.104Z,99.90
2023-05-14T19:06:23.254Z,99.90
2023-05-14T19:08:50.452Z,99.90
2023-05-14T19:11:18.125Z,99.90
2023-05-14T19:13:46.745Z,99.90
2023-05-14T19:16:13.903Z,99.90
2023-05-14T19:18:41.645Z,99.90
2023-05-14T19:21:08.761Z,99.90
2023-05-14T19:23:35.962Z,99.90
2023-05-14T19:26:03.704Z,99.90
2023-05-14T19:28:30.982Z,99.90
2023-05-14T19:30:58.176Z,99.90
2023-05-14T19:33:26.034Z,99.90
2023-05-14T19:35:53.280Z,99.90
2023-05-14T19:38:20.864Z,99.90
2023-05-14T19:40:47.889Z,99.90
2023-05-14T19:43:15.143Z,99.90
2023-05-14T19:45:42.630Z,99.90
2023-05-14T19:48:10.295Z,99.90
2023-05-14T19:50:37.411Z,99.90
2023-05-14T19:53:05.118Z,99.90
2023-05-14T19:55:32.758Z,99.90
2023-05-14T19:57:59.928Z,99.90
2023-05-14T20:00:27.461Z,99.90
2023-05-14T20:02:55.257Z,99.90
2023-05-14T20:05:22.322Z,99.90
2023-05-14T20:07:50.073Z,99.90
2023-05-14T20:10:17.030Z,99.90
2023-05-14T20:12:44.484Z,99.90
2023-05-14T20:15:11.660Z,99.90
2023-05-14T20:17:39.605Z,99.90
2023-05-14T20:20:10.071Z,99.90
2023-05-14T20:22:38.231Z,99.90
2023-05-14T20:25:06.752Z,99.90
2023-05-14T20:27:34.044Z,99.90
2023-05-14T20:30:01.151Z,99.90
2023-05-14T20:32:28.629Z,99.90
2023-05-14T20:34:55.730Z,99.90
2023-05-14T20:37:23.974Z,99.90
2023-05-14T20:39:50.933Z,99.90
2023-05-14T20:42:18.170Z,99.90
2023-05-14T20:44:45.135Z,99.90
2023-05-14T20:47:16.287Z,99.90
2023-05-14T20:49:43.411Z,99.90
2023-05-14T20:52:10.669Z,99.90
2023-05-14T20:54:37.571Z,99.90
2023-05-14T20:57:05.216Z,99.90
2023-05-14T20:59:32.222Z,99.90
2023-05-14T21:01:59.604Z,99.90
2023-05-14T21:04:26.839Z,99.90
2023-05-14T21:06:54.464Z,99.90
2023-05-14T21:09:23.137Z,99.90
2023-05-14T21:11:50.674Z,99.90
2023-05-14T21:14:17.620Z,99.90
2023-05-14T21:16:45.324Z,99.90
2023-05-14T21:19:13.382Z,99.90
2023-05-14T21:21:42.660Z,99.90
2023-05-14T21:24:09.679Z,99.90
2023-05-14T21:26:37.594Z,99.90
2023-05-14T21:29:04.632Z,99.90
2023-05-14T21:31:31.892Z,99.90
2023-05-14T21:33:58.849Z,99.90
2023-05-14T21:36:26.234Z,99.90
2023-05-14T21:38:53.904Z,99.90
2023-05-14T21:41:21.652Z,99.90
2023-05-14T21:43:48.498Z,99.90
2023-05-14T21:46:16.277Z,99.90
2023-05-14T21:48:43.551Z,99.90
2023-05-14T21:51:11.058Z,99.90
2023-05-14T21:53:38.071Z,99.90
2023-05-14T21:56:06.081Z,99.90
2023-05-14T21:58:33.055Z,99.90
2023-05-14T22:01:00.403Z,99.90
2023-05-14T22:03:29.507Z,99.90
2023-05-14T22:05:57.180Z,99.90
2023-05-14T22:08:24.378Z,99.90
2023-05-14T22:10:51.666Z,99.90
2023-05-14T22:13:18.634Z,99.90
2023-05-14T22:15:46.059Z,99.90
2023-05-14T22:18:15.304Z,99.90
2023-05-14T22:20:43.064Z,99.90
2023-05-14T22:23:09.912Z,99.90
2023-05-14T22:25:37.301Z,99.90
2023-05-14T22:28:04.409Z,99.90
2023-05-14T22:30:31.540Z,99.90
2023-05-14T22:32:58.501Z,99.90
2023-05-14T22:35:25.976Z,99.90
2023-05-14T22:37:53.197Z,99.90
2023-05-14T22:40:20.549Z,99.90
2023-05-14T22:42:47.390Z,99.90
2023-05-14T22:45:14.767Z,99.90
2023-05-14T22:47:41.789Z,99.90
2023-05-14T22:50:11.433Z,99.90
2023-05-14T22:52:40.080Z,99.90
2023-05-14T22:55:08.380Z,99.90
2023-05-14T22:57:35.522Z,99.90
2023-05-14T23:00:04.545Z,99.90
2023-05-14T23:02:31.604Z,99.90
2023-05-14T23:05:01.910Z,99.90
2023-05-14T23:07:28.930Z,99.90
2023-05-14T23:09:56.161Z,99.90
2023-05-14T23:12:23.074Z,99.90
2023-05-14T23:14:50.292Z,99.90
2023-05-14T23:17:17.673Z,99.90
2023-05-14T23:19:44.842Z,99.90
2023-05-14T23:22:12.444Z,99.90
2023-05-14T23:24:39.699Z,99.90
2023-05-14T23:27:06.964Z,99.90
2023-05-14T23:29:34.164Z,99.90
2023-05-14T23:32:01.158Z,99.90
2023-05-14T23:34:28.497Z,99.90
2023-05-14T23:36:55.841Z,99.90
2023-05-14T23:39:23.169Z,99.90
2023-05-14T23:41:50.169Z,99.90
2023-05-14T23:44:17.305Z,99.90
2023-05-14T23:46:44.442Z,99.90
2023-05-14T23:49:12.494Z,99.90
2023-05-14T23:51:39.383Z,99.90
2023-05-14T23:54:06.632Z,99.90
2023-05-14T23:56:34.300Z,99.90
2023-05-14T23:59:01.745Z,99.90
